Time;durP1;ratioP1;P1;durP2;ratioP2;P2;SDS_P1;SDS_P2;PMS_P1;PMS_P2;Temp;Humidity;BMP_temperature;BMP_pressure;BME280_temperature;BME280_humidity;BME280_pressure;Samples;Min_cycle;Max_cycle;Signal;HPM_P1;HPM_P2
2021/12/23 00:02:16;;;;;;;45.25;24.50;;;;;;;;;;5046625;28;20440;-85
2021/12/23 00:04:42;;;;;;;39.63;24.25;;;;;;;;;;5045713;28;20044;-85
2021/12/23 00:07:08;;;;;;;43.88;24.67;;;;;;;;;;5045288;28;20037;-85
2021/12/23 00:10:03;;;;;;;40.20;24.45;;;;;;;;;;5062077;28;20048;-85
2021/12/23 00:12:20;;;;;;;41.72;23.90;;;;;;;;;;5061569;28;20052;-85
2021/12/23 00:14:49;;;;;;;40.05;23.88;;;;;;;;;;5045510;28;20195;-85
2021/12/23 00:23:24;;;;;;;41.95;23.70;;;;;;;;;;5105725;28;20085;-85
2021/12/23 00:25:31;;;;;;;38.00;23.17;;;;;;;;;;5104667;28;20050;-85
2021/12/23 00:27:57;;;;;;;37.70;23.15;;;;;;;;;;5106205;28;20051;-85
2021/12/23 00:30:23;;;;;;;40.35;23.17;;;;;;;;;;5105515;28;20076;-85
2021/12/23 00:32:49;;;;;;;42.67;24.30;;;;;;;;;;5105320;28;20043;-86
2021/12/23 00:35:15;;;;;;;35.42;23.23;;;;;;;;;;5105502;28;20046;-85
2021/12/23 00:37:45;;;;;;;43.40;23.55;;;;;;;;;;5107433;28;20047;-86
2021/12/23 00:40:12;;;;;;;35.95;22.67;;;-0.80;99.90;;;;;;5106279;28;20069;-85
2021/12/23 00:42:39;;;;;;;38.63;22.83;;;;;;;;;;5104460;28;20105;-86
2021/12/23 00:45:05;;;;;;;37.97;22.42;;;-0.80;99.90;;;;;;5104745;28;20039;-85
2021/12/23 00:47:31;;;;;;;38.42;22.80;;;;;;;;;;5105063;28;20405;-85
2021/12/23 00:49:57;;;;;;;35.13;21.00;;;;;;;;;;5087431;28;20055;-86
2021/12/23 00:52:34;;;;;;;36.42;21.83;;;;;;;;;;5103762;28;20040;-85
2021/12/23 00:55:00;;;;;;;36.40;23.17;;;;;;;;;;5103659;28;20075;-85
2021/12/23 00:57:29;;;;;;;38.63;21.85;;;;;;;;;;5103045;28;20078;-85
2021/12/23 00:59:58;;;;;;;35.20;21.02;;;-0.70;99.90;;;;;;5103032;28;20091;-85
2021/12/23 01:02:29;;;;;;;37.15;21.92;;;-0.70;99.90;;;;;;5085779;28;20050;-85
2021/12/23 01:04:56;;;;;;;36.05;21.88;;;;;;;;;;5103206;28;20039;-85
2021/12/23 01:07:23;;;;;;;36.30;21.35;;;;;;;;;;5119699;28;20397;-85
2021/12/23 01:09:50;;;;;;;35.53;21.38;;;;;;;;;;5101541;28;20375;-84
2021/12/23 01:12:20;;;;;;;35.80;22.15;;;;;;;;;;5102629;28;20039;-85
2021/12/23 01:15:12;;;;;;;36.78;22.48;;;;;;;;;;5102524;28;20044;-86
2021/12/23 01:17:59;;;;;;;33.95;20.70;;;;;;;;;;5103210;28;20090;-86
2021/12/23 01:20:33;;;;;;;33.47;21.25;;;-0.60;99.90;;;;;;5103083;28;20040;-85
2021/12/23 01:23:08;;;;;;;34.83;20.45;;;-0.50;99.90;;;;;;5102335;28;20099;-85
2021/12/23 01:25:36;;;;;;;35.03;21.60;;;-0.60;99.90;;;;;;5102548;28;20048;-85
2021/12/23 01:28:02;;;;;;;36.03;20.55;;;;;;;;;;5102251;28;20085;-85
2021/12/23 01:30:30;;;;;;;34.80;21.40;;;;;;;;;;5103569;28;20107;-85
2021/12/23 01:32:57;;;;;;;37.67;21.27;;;-0.50;99.90;;;;;;5119734;28;20054;-85
2021/12/23 01:35:25;;;;;;;35.05;21.58;;;-0.60;99.90;;;;;;5118705;28;20138;-85
2021/12/23 01:37:52;;;;;;;33.33;20.58;;;-0.60;99.90;;;;;;5102604;28;20043;-85
2021/12/23 01:40:19;;;;;;;36.72;20.75;;;-0.50;99.90;;;;;;5102740;28;20043;-85
2021/12/23 01:42:46;;;;;;;35.00;21.58;;;;;;;;;;5102907;28;20546;-85
2021/12/23 01:45:16;;;;;;;36.67;22.13;;;-0.50;99.90;;;;;;5101634;28;20100;-85
2021/12/23 01:47:43;;;;;;;33.55;21.08;;;;;;;;;;5101969;28;20035;-85
2021/12/23 01:50:11;;;;;;;34.17;21.02;;;-0.50;99.90;;;;;;5101510;28;20051;-85
2021/12/23 01:52:38;;;;;;;34.10;20.80;;;;;;;;;;5101676;28;20047;-85
2021/12/23 01:55:08;;;;;;;32.30;20.00;;;-0.50;99.90;;;;;;5101617;28;20051;-86
2021/12/23 01:57:35;;;;;;;33.38;20.77;;;;;;;;;;5084612;28;20051;-85
2021/12/23 02:00:05;;;;;;;33.28;20.17;;;-0.50;99.90;;;;;;5100083;28;20483;-85
2021/12/23 02:02:32;;;;;;;33.33;19.65;;;-0.50;99.90;;;;;;5100330;28;20136;-84
2021/12/23 02:04:58;;;;;;;35.05;20.60;;;;;;;;;;5100641;28;20099;-85
2021/12/23 02:07:24;;;;;;;32.58;20.65;;;;;;;;;;5100698;28;20122;-85
2021/12/23 02:09:50;;;;;;;33.25;20.48;;;;;;;;;;5101578;28;20469;-85
2021/12/23 02:12:17;;;;;;;32.47;20.13;;;-0.50;99.90;;;;;;5101392;28;20588;-85
2021/12/23 02:14:43;;;;;;;33.20;19.77;;;;;;;;;;5100654;28;20130;-85
2021/12/23 02:17:10;;;;;;;31.85;20.25;;;-0.50;99.90;;;;;;5101048;28;20047;-85
2021/12/23 02:19:36;;;;;;;33.63;20.75;;;;;;;;;;5101063;28;20048;-85
2021/12/23 02:22:02;;;;;;;30.15;20.17;;;;;;;;;;5100516;28;20461;-85
2021/12/23 02:24:28;;;;;;;34.10;20.88;;;;;;;;;;5100044;28;20447;-84
2021/12/23 02:26:54;;;;;;;32.00;20.25;;;;;;;;;;5100532;28;20036;-85
2021/12/23 02:29:20;;;;;;;35.47;20.63;;;;;;;;;;5101105;28;20043;-86
2021/12/23 02:31:52;;;;;;;33.25;20.60;;;-0.60;99.90;;;;;;5101239;28;20390;-82
2021/12/23 02:34:20;;;;;;;32.47;20.70;;;-0.60;99.90;;;;;;5083653;28;20054;-85
2021/12/23 02:36:54;;;;;;;32.60;20.73;;;-0.60;99.90;;;;;;5100701;28;20036;-85
2021/12/23 02:39:22;;;;;;;31.58;20.48;;;-0.60;99.90;;;;;;5096390;28;20051;-85
2021/12/23 02:41:49;;;;;;;38.60;22.35;;;;;;;;;;5100981;28;20071;-85
2021/12/23 02:44:15;;;;;;;37.58;22.65;;;-0.70;99.90;;;;;;5100135;28;20051;-85
2021/12/23 02:46:42;;;;;;;43.00;21.58;;;;;;;;;;5100729;28;20055;-85
2021/12/23 02:49:08;;;;;;;35.90;22.70;;;;;;;;;;5101117;28;20043;-85
2021/12/23 02:51:34;;;;;;;35.75;21.45;;;;;;;;;;5099969;28;20440;-85
2021/12/23 02:54:00;;;;;;;32.47;21.48;;;;;;;;;;5100098;28;20124;-85
2021/12/23 02:56:28;;;;;;;36.13;21.88;;;;;;;;;;5099810;28;20043;-85
2021/12/23 02:58:57;;;;;;;32.05;21.52;;;;;;;;;;5101162;28;20040;-85
2021/12/23 03:01:25;;;;;;;36.58;21.10;;;-0.60;99.90;;;;;;5099487;28;20509;-85
2021/12/23 03:03:51;;;;;;;33.55;20.90;;;;;;;;;;5100625;28;20043;-85
2021/12/23 03:06:18;;;;;;;35.20;20.20;;;;;;;;;;5100678;28;20039;-85
2021/12/23 03:08:50;;;;;;;33.00;20.10;;;-0.50;99.90;;;;;;5100826;28;20059;-84
2021/12/23 03:11:22;;;;;;;30.85;20.15;;;-0.60;99.90;;;;;;5101341;28;20040;-85
2021/12/23 03:13:49;;;;;;;32.92;20.75;;;-0.60;99.90;;;;;;5118812;28;20052;-85
2021/12/23 03:16:19;;;;;;;33.70;20.58;;;-0.50;99.90;;;;;;5116461;28;20055;-85
2021/12/23 03:18:45;;;;;;;33.65;21.50;;;;;;;;;;5100971;28;20076;-85
2021/12/23 03:21:11;;;;;;;35.28;20.63;;;;;;;;;;5099313;28;20063;-85
2021/12/23 03:23:37;;;;;;;30.65;20.45;;;;;;;;;;5099693;28;20492;-85
2021/12/23 03:26:07;;;;;;;34.35;20.92;;;-0.60;99.90;;;;;;5100326;28;20112;-85
2021/12/23 03:28:36;;;;;;;33.97;21.02;;;;;;;;;;5117183;28;20043;-85
2021/12/23 03:31:02;;;;;;;31.35;21.13;;;;;;;;;;5099814;28;20059;-85
2021/12/23 03:33:28;;;;;;;35.22;21.50;;;;;;;;;;5122641;28;20055;-85
2021/12/23 03:35:55;;;;;;;32.67;21.50;;;;;;;;;;5103762;28;20077;-85
2021/12/23 03:38:22;;;;;;;32.45;21.05;;;-0.60;99.90;;;;;;5104087;28;20227;-85
2021/12/23 03:40:49;;;;;;;33.30;20.88;;;;;;;;;;5104021;28;20048;-85
2021/12/23 03:43:16;;;;;;;34.22;21.13;;;;;;;;;;5104102;28;20051;-85
2021/12/23 03:45:46;;;;;;;31.55;20.65;;;-0.50;99.90;;;;;;5104135;28;20054;-85
2021/12/23 03:48:14;;;;;;;31.08;20.52;;;-0.50;99.90;;;;;;5103677;28;20048;-85
2021/12/23 03:50:40;;;;;;;33.33;20.88;;;;;;;;;;5120083;28;20054;-85
2021/12/23 03:53:07;;;;;;;31.52;19.90;;;;;;;;;;5104167;28;20393;-85
2021/12/23 03:55:33;;;;;;;31.20;19.85;;;;;;;;;;5103726;28;20048;-84
2021/12/23 03:57:59;;;;;;;29.63;19.63;;;;;;;;;;5104507;28;20531;-85
2021/12/23 04:00:26;;;;;;;32.25;20.67;;;;;;;;;;5100853;28;20044;-85
2021/12/23 04:02:52;;;;;;;32.03;20.48;;;-0.50;99.90;;;;;;5100503;28;20059;-85
2021/12/23 04:05:19;;;;;;;35.63;19.67;;;-0.40;99.90;;;;;;5100532;28;20580;-85
2021/12/23 04:07:46;;;;;;;34.67;21.77;;;;;;;;;;5083788;28;20048;-85
2021/12/23 04:10:14;;;;;;;34.17;20.50;;;-0.40;99.90;;;;;;5101008;28;20494;-85
2021/12/23 04:12:41;;;;;;;35.42;21.92;;;;;;;;;;5100678;28;20436;-85
2021/12/23 04:15:07;;;;;;;32.50;21.27;;;;;;;;;;5102889;28;20157;-85
2021/12/23 04:17:33;;;;;;;36.95;21.70;;;;;;;;;;5101022;28;20135;-85
2021/12/23 04:20:15;;;;;;;33.92;21.77;;;;;;;;;;5101946;28;20452;-85
2021/12/23 04:22:42;;;;;;;33.83;21.48;;;-0.40;99.90;;;;;;5102125;28;20148;-85
2021/12/23 04:25:09;;;;;;;33.45;21.48;;;;;;;;;;5102099;28;20047;-86
2021/12/23 04:27:35;;;;;;;34.15;21.88;;;;;;;;;;5102012;28;20052;-85
2021/12/23 04:30:01;;;;;;;31.35;21.15;;;;;;;;;;5101438;28;20062;-85
2021/12/23 04:32:27;;;;;;;32.35;21.55;;;;;;;;;;5100153;28;20052;-85
2021/12/23 04:34:53;;;;;;;34.33;22.00;;;;;;;;;;5099459;28;20125;-85
2021/12/23 04:37:19;;;;;;;32.95;21.27;;;;;;;;;;5100766;28;20440;-85
2021/12/23 04:39:45;;;;;;;34.35;21.63;;;;;;;;;;5108918;28;20044;-85
2021/12/23 04:42:12;;;;;;;36.25;20.88;;;;;;;;;;5114089;28;20040;-85
2021/12/23 04:44:38;;;;;;;34.47;21.60;;;;;;;;;;5113583;28;20176;-85
2021/12/23 04:47:04;;;;;;;30.75;20.25;;;;;;;;;;5117088;28;20044;-85
2021/12/23 04:49:30;;;;;;;31.65;20.35;;;;;;;;;;5116735;28;20048;-85
2021/12/23 04:51:56;;;;;;;33.20;20.55;;;;;;;;;;5118146;28;20052;-85
2021/12/23 04:54:22;;;;;;;32.22;20.38;;;;;;;;;;5118423;28;20040;-85
2021/12/23 04:56:48;;;;;;;33.55;19.77;;;;;;;;;;5118529;28;20095;-85
2021/12/23 04:59:15;;;;;;;31.25;19.90;;;;;;;;;;5119295;28;20063;-85
2021/12/23 05:01:41;;;;;;;32.10;20.85;;;;;;;;;;5119878;28;20059;-86
2021/12/23 05:04:07;;;;;;;31.33;19.52;;;;;;;;;;5115665;28;20044;-85
2021/12/23 05:06:34;;;;;;;32.45;20.17;;;;;;;;;;5104468;28;20386;-85
2021/12/23 05:09:00;;;;;;;33.28;19.98;;;;;;;;;;5115606;28;20036;-86
2021/12/23 05:11:26;;;;;;;35.42;20.67;;;;;;;;;;5117748;28;20044;-86
2021/12/23 05:13:53;;;;;;;31.88;20.05;;;;;;;;;;5114701;28;20040;-86
2021/12/23 05:16:19;;;;;;;35.25;20.60;;;;;;;;;;5119324;28;20035;-85
2021/12/23 05:18:48;;;;;;;31.00;20.02;;;;;;;;;;5118657;28;20058;-85
2021/12/23 05:21:15;;;;;;;31.98;20.48;;;;;;;;;;5135061;28;20055;-85
2021/12/23 05:23:41;;;;;;;31.25;19.77;;;;;;;;;;5112053;28;20099;-85
2021/12/23 05:26:08;;;;;;;30.77;20.98;;;;;;;;;;5099718;28;20375;-85
2021/12/23 05:28:35;;;;;;;33.50;20.98;;;-0.30;99.90;;;;;;5099523;28;20051;-85
2021/12/23 05:31:01;;;;;;;35.58;19.65;;;;;;;;;;5099163;28;20405;-85
2021/12/23 05:33:27;;;;;;;36.40;21.67;;;;;;;;;;5099104;28;20036;-86
2021/12/23 05:35:55;;;;;;;34.28;21.02;;;;;;;;;;5099458;28;20048;-85
2021/12/23 05:38:21;;;;;;;33.78;21.17;;;;;;;;;;5098986;28;20055;-85
2021/12/23 05:40:47;;;;;;;34.55;21.80;;;;;;;;;;5099290;28;20044;-85
2021/12/23 05:43:13;;;;;;;31.95;21.05;;;;;;;;;;5098714;28;20581;-85
2021/12/23 05:45:39;;;;;;;37.45;21.65;;;;;;;;;;5098692;28;20040;-85
2021/12/23 05:48:05;;;;;;;32.58;21.75;;;;;;;;;;5098884;28;20051;-85
2021/12/23 05:50:32;;;;;;;33.83;21.60;;;;;;;;;;5100010;28;20067;-85
2021/12/23 05:52:58;;;;;;;33.55;21.20;;;;;;;;;;5098194;28;20091;-85
2021/12/23 05:55:24;;;;;;;31.70;20.35;;;;;;;;;;5097564;28;20053;-86
2021/12/23 05:57:50;;;;;;;39.30;21.33;;;;;;;;;;5113027;28;20139;-85
2021/12/23 06:00:29;;;;;;;33.00;21.38;;;-0.20;99.90;;;;;;5097656;28;20486;-85
2021/12/23 06:02:57;;;;;;;31.98;20.17;;;-0.20;99.90;;;;;;5097957;28;20078;-85
2021/12/23 06:05:23;;;;;;;33.33;21.27;;;;;;;;;;5096855;28;20036;-85
2021/12/23 06:07:49;;;;;;;37.67;21.65;;;;;;;;;;5098901;28;20044;-85
2021/12/23 06:10:16;;;;;;;36.38;21.65;;;-0.20;99.90;;;;;;5099221;28;20066;-85
2021/12/23 06:12:43;;;;;;;35.63;21.48;;;-0.10;99.90;;;;;;5098509;28;20060;-85
2021/12/23 06:15:10;;;;;;;34.97;20.83;;;-0.20;99.90;;;;;;5098766;28;20482;-85
2021/12/23 06:17:36;;;;;;;33.50;21.30;;;;;;;;;;5096099;28;20126;-85
2021/12/23 06:20:05;;;;;;;34.00;21.85;;;-0.30;99.90;;;;;;5099504;28;20140;-85
2021/12/23 06:22:34;;;;;;;32.20;20.80;;;;;;;;;;5100459;28;20040;-87
2021/12/23 06:25:00;;;;;;;34.85;21.67;;;;;;;;;;5099461;28;20052;-86
2021/12/23 06:27:27;;;;;;;32.13;21.63;;;;;;;;;;5097897;28;20050;-86
2021/12/23 06:29:53;;;;;;;39.15;22.52;;;;;;;;;;5097558;28;20147;-86
2021/12/23 06:32:19;;;;;;;35.63;21.90;;;;;;;;;;5098178;28;20062;-86
2021/12/23 06:34:45;;;;;;;34.75;21.58;;;;;;;;;;5099627;28;20040;-86
2021/12/23 06:37:12;;;;;;;37.60;21.50;;;;;;;;;;5098300;28;20056;-86
2021/12/23 06:39:39;;;;;;;37.80;22.02;;;;;;;;;;5097655;28;20453;-86
2021/12/23 06:42:05;;;;;;;33.08;21.60;;;;;;;;;;5081985;28;20050;-86
2021/12/23 06:44:32;;;;;;;33.03;21.00;;;;;;;;;;5097682;28;20044;-86
2021/12/23 06:46:58;;;;;;;37.10;21.42;;;;;;;;;;5096676;28;20048;-86
2021/12/23 06:49:24;;;;;;;41.83;22.40;;;;;;;;;;5097850;28;20052;-86
2021/12/23 06:51:50;;;;;;;37.40;21.83;;;;;;;;;;5098044;28;20143;-86
2021/12/23 06:54:17;;;;;;;34.60;22.13;;;0.00;99.90;;;;;;5098527;28;20056;-87
2021/12/23 06:56:43;;;;;;;34.17;21.42;;;;;;;;;;5101176;28;20115;-86
2021/12/23 06:59:09;;;;;;;36.83;21.67;;;;;;;;;;5104344;28;20044;-86
2021/12/23 07:01:35;;;;;;;34.78;21.33;;;;;;;;;;5094897;28;20139;-85
2021/12/23 07:06:46;;;;;;;41.58;22.67;;;;;;;;;;5097406;28;20052;-86
2021/12/23 07:09:13;;;;;;;34.25;22.00;;;0.00;99.90;;;;;;5081110;28;20513;-86
2021/12/23 07:11:45;;;;;;;39.13;23.40;;;;;;;;;;5081698;28;20040;-86
2021/12/23 07:14:11;;;;;;;34.65;21.58;;;;;;;;;;5096307;28;20051;-85
2021/12/23 07:16:39;;;;;;;40.42;23.15;;;;;;;;;;5079103;28;20036;-87
2021/12/23 07:19:06;;;;;;;39.58;23.67;;;;;;;;;;5077297;28;20052;-86
2021/12/23 07:21:32;;;;;;;38.75;23.10;;;;;;;;;;5096073;28;20069;-86
2021/12/23 07:23:58;;;;;;;38.22;23.02;;;;;;;;;;5078707;28;20059;-86
2021/12/23 07:26:24;;;;;;;38.13;23.17;;;;;;;;;;5079816;28;20505;-86
2021/12/23 07:28:51;;;;;;;43.35;25.17;;;;;;;;;;5092244;28;20056;-86
2021/12/23 07:31:17;;;;;;;35.75;22.25;;;;;;;;;;5099591;28;20048;-85
2021/12/23 07:33:43;;;;;;;38.15;23.50;;;;;;;;;;5100973;28;20462;-86
2021/12/23 07:36:09;;;;;;;36.95;22.33;;;;;;;;;;5100784;28;20048;-86
2021/12/23 07:38:36;;;;;;;38.42;23.00;;;;;;;;;;5109830;28;20047;-86
2021/12/23 07:41:02;;;;;;;42.20;23.50;;;;;;;;;;5104149;28;20420;-86
2021/12/23 07:43:44;;;;;;;41.75;23.75;;;;;;;;;;5116102;28;20063;-86
2021/12/23 07:46:11;;;;;;;38.38;23.25;;;;;;;;;;5115119;28;20040;-84
2021/12/23 07:48:40;;;;;;;39.15;22.77;;;;;;;;;;5115638;28;20048;-85
2021/12/23 07:51:06;;;;;;;42.35;24.10;;;;;;;;;;5130334;28;20409;-84
2021/12/23 07:53:32;;;;;;;37.97;23.27;;;;;;;;;;5110678;28;20056;-85
2021/12/23 07:55:58;;;;;;;38.42;24.13;;;;;;;;;;5100086;28;20691;-85
2021/12/23 07:58:27;;;;;;;41.03;23.42;;;;;;;;;;5095702;28;20048;-83
2021/12/23 08:00:56;;;;;;;42.78;24.00;;;;;;;;;;5079002;28;20056;-84
2021/12/23 08:03:22;;;;;;;40.63;23.85;;;;;;;;;;5084269;28;20051;-85
2021/12/23 08:05:48;;;;;;;43.30;25.45;;;;;;;;;;5101211;28;20063;-85
2021/12/23 08:08:14;;;;;;;40.45;23.95;;;;;;;;;;5080072;28;20024;-84
2021/12/23 08:10:41;;;;;;;41.60;25.58;;;;;;;;;;5080777;28;20058;-85
2021/12/23 08:13:07;;;;;;;41.10;24.98;;;;;;;;;;5078448;28;20059;-85
2021/12/23 08:15:34;;;;;;;43.65;25.95;;;;;;;;;;5079258;28;20087;-84
2021/12/23 08:18:00;;;;;;;44.10;26.77;;;;;;;;;;5081588;28;20071;-84
2021/12/23 08:20:28;;;;;;;47.00;27.17;;;;;;;;;;5082484;28;20098;-84
2021/12/23 08:22:54;;;;;;;46.25;26.40;;;;;;;;;;5099649;28;20044;-84
2021/12/23 08:25:22;;;;;;;47.13;28.42;;;;;;;;;;5081728;28;20052;-84
2021/12/23 08:27:53;;;;;;;45.92;27.63;;;;;;;;;;5097156;28;20058;-84
2021/12/23 08:30:22;;;;;;;45.58;27.38;;;0.40;99.90;;;;;;5080209;28;20071;-84
2021/12/23 08:32:48;;;;;;;46.05;27.52;;;0.40;99.90;;;;;;5078246;28;20051;-85
2021/12/23 08:35:16;;;;;;;49.75;28.30;;;0.40;99.90;;;;;;5077150;28;20410;-85
2021/12/23 08:37:45;;;;;;;47.13;27.13;;;0.40;99.90;;;;;;5078250;28;20067;-85
2021/12/23 08:40:12;;;;;;;47.08;27.13;;;;;;;;;;5077946;28;20662;-85
2021/12/23 08:42:38;;;;;;;50.17;29.45;;;;;;;;;;5078060;28;20126;-85
2021/12/23 08:45:07;;;;;;;49.05;29.25;;;;;;;;;;5078641;28;20099;-85
2021/12/23 08:47:33;;;;;;;46.85;27.80;;;;;;;;;;5080524;28;20055;-85
2021/12/23 08:49:59;;;;;;;47.50;27.75;;;;;;;;;;5080636;28;20051;-85
2021/12/23 08:52:25;;;;;;;51.75;29.45;;;;;;;;;;5078323;28;20454;-84
2021/12/23 08:54:51;;;;;;;47.15;27.77;;;;;;;;;;5078141;28;20079;-85
2021/12/23 08:57:17;;;;;;;51.22;29.05;;;;;;;;;;5078296;28;20520;-85
2021/12/23 08:59:45;;;;;;;50.03;29.58;;;;;;;;;;5090017;28;20048;-84
2021/12/23 09:02:12;;;;;;;53.72;29.77;;;;;;;;;;5081195;28;20066;-84
2021/12/23 09:04:38;;;;;;;54.67;30.52;;;;;;;;;;5081947;28;20040;-85
2021/12/23 09:07:06;;;;;;;50.67;29.95;;;;;;;;;;5081678;28;20505;-85
2021/12/23 09:09:33;;;;;;;58.13;30.92;;;;;;;;;;5082298;28;20126;-85
2021/12/23 09:12:01;;;;;;;55.30;31.20;;;0.50;99.90;;;;;;5081866;28;20044;-84
2021/12/23 09:14:27;;;;;;;58.50;32.63;;;0.50;99.90;;;;;;5081868;28;20122;-84
2021/12/23 09:16:56;;;;;;;56.65;32.42;;;;;;;;;;5081674;28;20440;-84
2021/12/23 09:19:22;;;;;;;57.85;31.75;;;;;;;;;;5081790;28;20046;-85
2021/12/23 09:21:48;;;;;;;51.90;31.23;;;;;;;;;;5081012;28;20055;-84
2021/12/23 09:24:14;;;;;;;54.33;32.30;;;;;;;;;;5081343;28;20130;-85
2021/12/23 09:26:51;;;;;;;54.92;30.88;;;;;;;;;;5081641;28;20047;-84
2021/12/23 09:34:50;;;;;;;;;;;0.40;99.90;;;;;;5116891;28;20048;-84
2021/12/23 09:37:17;;;;;;;58.60;31.90;;;;;;;;;;5082438;28;20012;-85
2021/12/23 09:39:44;;;;;;;59.42;33.08;;;;;;;;;;5081388;28;20062;-84
2021/12/23 09:42:12;;;;;;;57.55;32.03;;;0.50;99.90;;;;;;5079474;28;20047;-85
2021/12/23 09:44:38;;;;;;;62.15;33.30;;;;;;;;;;5097268;28;20075;-84
2021/12/23 09:47:06;;;;;;;61.67;33.58;;;;;;;;;;5079537;28;20052;-85
2021/12/23 09:49:32;;;;;;;60.25;33.00;;;0.60;99.90;;;;;;5080526;28;20046;-84
2021/12/23 09:52:03;;;;;;;61.28;34.13;;;0.60;99.90;;;;;;5095794;27;20461;-84
2021/12/23 09:54:33;;;;;;;62.33;33.20;;;0.50;99.90;;;;;;5100319;27;20039;-84
2021/12/23 09:57:00;;;;;;;62.88;33.65;;;;;;;;;;5099635;27;20051;-84
2021/12/23 09:59:27;;;;;;;64.35;34.33;;;;;;;;;;5096427;28;20113;-84
2021/12/23 10:01:56;;;;;;;63.72;34.35;;;0.50;99.90;;;;;;5096929;28;20074;-84
2021/12/23 10:04:22;;;;;;;66.15;34.65;;;;;;;;;;5096066;28;20043;-85
2021/12/23 10:06:50;;;;;;;62.92;33.70;;;;;;;;;;5080232;28;20043;-84
2021/12/23 10:09:36;;;;;;;66.68;34.65;;;0.60;99.90;;;;;;5079311;28;20058;-84
2021/12/23 10:13:01;;;;;;;63.70;34.53;;;;;;;;;;5078470;28;20059;-84
2021/12/23 10:32:17;;;;;;;62.13;34.63;;;0.70;99.90;;;;;;5095890;28;20136;-85
2021/12/23 10:39:50;;;;;;;63.58;32.78;;;0.80;99.90;;;;;;5095826;28;20566;-84
2021/12/23 10:42:23;;;;;;;67.35;35.28;;;0.90;99.90;;;;;;5095899;28;20048;-84
2021/12/23 10:44:57;;;;;;;67.40;34.15;;;0.70;99.90;;;;;;5078358;28;20047;-84
2021/12/23 10:48:05;;;;;;;68.40;35.97;;;0.80;99.90;;;;;;5078824;28;20043;-84
2021/12/23 10:50:40;;;;;;;67.40;34.70;;;0.90;99.90;;;;;;5095452;28;20055;-85
2021/12/23 10:53:12;;;;;;;70.22;35.58;;;0.80;99.90;;;;;;5079048;28;20043;-84
2021/12/23 10:58:23;;;;;;;68.65;37.03;;;;;;;;;;5095527;28;20071;-85
2021/12/23 11:00:53;;;;;;;69.47;35.70;;;0.90;99.90;;;;;;5078124;28;20097;-85
2021/12/23 11:03:38;;;;;;;68.88;36.20;;;0.90;99.90;;;;;;5078359;28;20083;-85
2021/12/23 11:06:23;;;;;;;70.10;37.65;;;0.90;99.90;;;;;;5061969;28;20063;-84
2021/12/23 11:09:01;;;;;;;74.10;37.58;;;;;;;;;;5078541;28;20095;-84
2021/12/23 11:41:33;;;;;;;77.32;38.85;;;0.80;99.90;;;;;;5094690;28;20100;-84
2021/12/23 11:44:01;;;;;;;80.30;39.95;;;0.90;99.90;;;;;;5077866;28;20122;-84
2021/12/23 11:46:38;;;;;;;75.05;38.13;;;0.90;99.90;;;;;;5078500;28;20047;-84
2021/12/23 11:49:07;;;;;;;76.85;39.40;;;;;;;;;;5077310;28;20120;-85
2021/12/23 11:51:53;;;;;;;78.85;39.85;;;;;;;;;;5077455;28;20138;-85
2021/12/23 11:54:27;;;;;;;80.28;37.85;;;1.00;99.90;;;;;;5081444;28;20481;-85
2021/12/23 11:57:01;;;;;;;83.07;38.53;;;0.90;99.90;;;;;;5098505;28;20094;-84
2021/12/23 11:59:27;;;;;;;79.60;39.08;;;;;;;;;;5090946;27;20135;-85
2021/12/23 12:02:01;;;;;;;80.95;38.80;;;1.00;99.90;;;;;;5101813;27;20043;-85
2021/12/23 12:04:35;;;;;;;83.05;38.78;;;1.00;99.90;;;;;;5102176;27;20040;-85
2021/12/23 12:07:10;;;;;;;83.43;40.83;;;0.90;99.90;;;;;;5101451;27;20103;-84
2021/12/23 12:09:38;;;;;;;80.07;41.25;;;;;;;;;;5102077;27;20122;-85
2021/12/23 12:12:11;;;;;;;82.80;39.72;;;1.00;99.90;;;;;;5101858;27;20051;-85
2021/12/23 12:14:40;;;;;;;78.35;40.72;;;;;;;;;;5103019;27;20072;-85
2021/12/23 12:17:25;;;;;;;80.38;40.00;;;0.90;99.90;;;;;;5118239;27;20047;-84
2021/12/23 12:20:01;;;;;;;86.10;41.05;;;;;;;;;;5102232;27;20040;-84
2021/12/23 12:22:45;;;;;;;78.13;39.42;;;;;;;;;;5105235;27;20054;-83
2021/12/23 12:25:48;;;;;;;80.03;39.65;;;1.20;99.90;;;;;;5102062;27;20049;-85
2021/12/23 12:28:22;;;;;;;80.63;39.58;;;1.20;99.90;;;;;;5058619;27;20050;-84
2021/12/23 12:30:51;;;;;;;75.40;38.22;;;;;;;;;;5097391;27;20081;-84
2021/12/23 12:33:23;;;;;;;73.65;37.58;;;;;;;;;;5109822;27;20079;-84
2021/12/23 12:36:06;;;;;;;78.00;38.30;;;1.20;99.90;;;;;;5087997;27;20036;-84
2021/12/23 12:38:45;;;;;;;77.13;39.08;;;1.30;99.90;;;;;;5083670;28;20043;-84
2021/12/23 12:41:27;;;;;;;82.22;40.08;;;1.30;99.90;;;;;;5083724;28;20043;-84
2021/12/23 12:44:28;;;;;;;83.55;38.30;;;1.20;99.90;;;;;;5083393;28;20044;-84
2021/12/23 12:47:10;;;;;;;84.50;39.83;;;1.10;99.90;;;;;;5082326;28;20831;-84
2021/12/23 12:49:50;;;;;;;78.93;39.65;;;1.20;99.90;;;;;;5082889;28;20044;-84
2021/12/23 12:52:30;;;;;;;81.40;38.80;;;1.20;99.90;;;;;;5082005;28;20134;-83
2021/12/23 12:55:06;;;;;;;82.97;41.70;;;1.20;99.90;;;;;;5082598;28;20047;-84
2021/12/23 12:57:43;;;;;;;87.15;40.47;;;1.20;99.90;;;;;;5093036;27;20058;-85
2021/12/23 13:00:24;;;;;;;81.78;40.58;;;1.30;99.90;;;;;;5104867;27;20086;-84
2021/12/23 13:02:57;;;;;;;83.80;41.40;;;1.20;99.90;;;;;;5103274;27;20054;-83
2021/12/23 13:05:34;;;;;;;84.13;40.72;;;1.30;99.90;;;;;;5089266;28;20035;-83
2021/12/23 13:08:05;;;;;;;84.68;40.97;;;;;;;;;;5092147;27;20043;-84
2021/12/23 13:10:33;;;;;;;83.38;40.90;;;1.30;99.90;;;;;;5088560;27;20039;-84
2021/12/23 13:13:06;;;;;;;85.50;41.08;;;1.40;99.90;;;;;;5102546;27;20051;-83
2021/12/23 13:15:35;;;;;;;85.75;42.55;;;1.30;99.90;;;;;;5103284;27;20075;-84
2021/12/23 13:18:08;;;;;;;80.40;38.92;;;1.30;99.90;;;;;;5103845;27;20047;-83
2021/12/23 13:20:54;;;;;;;80.82;40.03;;;1.20;99.90;;;;;;5103764;27;20392;-84
2021/12/23 13:23:33;;;;;;;83.60;42.80;;;1.40;99.90;;;;;;5087562;28;20040;-84
2021/12/23 13:26:01;;;;;;;79.50;40.08;;;1.20;99.90;;;;;;5083100;28;20054;-84
2021/12/23 13:28:31;;;;;;;75.43;37.92;;;;;;;;;;5083155;28;20055;-84
2021/12/23 13:31:01;;;;;;;74.00;37.70;;;1.20;99.90;;;;;;5083130;28;20159;-84
2021/12/23 13:33:27;;;;;;;78.90;40.08;;;;;;;;;;5100404;28;20041;-84
2021/12/23 13:35:54;;;;;;;83.75;39.22;;;1.40;99.90;;;;;;5083327;28;20079;-83
2021/12/23 13:38:40;;;;;;;76.97;39.03;;;1.20;99.90;;;;;;5099315;28;20557;-84
2021/12/23 13:41:25;;;;;;;78.03;39.47;;;1.30;99.90;;;;;;5083728;28;20039;-83
2021/12/23 13:43:57;;;;;;;77.23;40.00;;;1.40;99.90;;;;;;5083114;28;20075;-84
2021/12/23 13:46:32;;;;;;;78.32;38.67;;;;;;;;;;5082990;28;20054;-84
2021/12/23 13:49:31;;;;;;;77.35;38.75;;;1.30;99.90;;;;;;5083983;28;20466;-83
2021/12/23 13:52:00;;;;;;;75.63;37.53;;;;;;;;;;5096820;28;20051;-84
2021/12/23 13:54:33;;;;;;;79.63;42.33;;;1.30;99.90;;;;;;5087318;28;20040;-83
2021/12/23 13:56:59;;;;;;;74.57;37.92;;;;;;;;;;5092958;28;20047;-84
2021/12/23 13:59:28;;;;;;;76.22;38.35;;;1.20;99.90;;;;;;5090691;28;20055;-84
2021/12/23 14:01:56;;;;;;;82.03;42.65;;;;;;;;;;5090265;28;20040;-84
2021/12/23 14:04:38;;;;;;;80.28;38.95;;;1.30;99.90;;;;;;5090887;28;20055;-84
2021/12/23 14:07:10;;;;;;;82.50;39.05;;;;;;;;;;5089026;28;20497;-83
2021/12/23 14:09:57;;;;;;;79.75;40.58;;;1.30;99.90;;;;;;5089656;28;20048;-84
2021/12/23 14:13:02;;;;;;;74.03;38.70;;;1.40;99.90;;;;;;5089561;28;20042;-84
2021/12/23 14:15:31;;;;;;;74.80;40.47;;;1.30;99.90;;;;;;5090173;28;20093;-84
2021/12/23 14:18:02;;;;;;;79.35;41.08;;;1.40;99.90;;;;;;5092867;28;20051;-84
2021/12/23 14:23:34;;;;;;;85.72;40.60;;;1.30;99.90;;;;;;5105925;28;20083;-83
2021/12/23 14:26:03;;;;;;;73.80;37.83;;;1.30;99.90;;;;;;5087560;28;20108;-83
2021/12/23 14:28:49;;;;;;;79.35;39.80;;;1.20;99.90;;;;;;5083912;28;20047;-83
2021/12/23 14:31:21;;;;;;;79.07;40.33;;;1.40;99.90;;;;;;5081622;28;20422;-84
2021/12/23 14:33:50;;;;;;;78.65;39.90;;;;;;;;;;5082417;28;20434;-84
2021/12/23 14:36:30;;;;;;;76.07;38.50;;;1.40;99.90;;;;;;5082241;28;20048;-84
2021/12/23 14:38:57;;;;;;;78.93;39.85;;;1.30;99.90;;;;;;5098130;28;20075;-83
2021/12/23 14:41:25;;;;;;;82.40;41.70;;;1.40;99.90;;;;;;5081737;28;20454;-84
2021/12/23 14:43:53;;;;;;;77.05;39.67;;;;;;;;;;5081758;28;20126;-83
2021/12/23 14:46:38;;;;;;;77.88;38.63;;;1.40;99.90;;;;;;5082119;28;20501;-83
2021/12/23 14:51:34;;;;;;;76.10;39.38;;;1.50;99.90;;;;;;5098044;28;20055;-83
2021/12/23 14:54:16;;;;;;;77.63;40.05;;;1.50;99.90;;;;;;5081593;28;20051;-84
2021/12/23 14:56:45;;;;;;;77.57;40.30;;;1.50;99.90;;;;;;5080856;28;20056;-84
2021/12/23 14:59:19;;;;;;;82.53;39.78;;;1.50;99.90;;;;;;5081389;28;20047;-84
2021/12/23 15:01:49;;;;;;;76.05;41.45;;;1.60;99.90;;;;;;5097482;28;20486;-83
2021/12/23 15:04:17;;;;;;;91.43;45.67;;;1.60;99.90;;;;;;5081342;28;20051;-84